Time;durP1;ratioP1;P1;durP2;ratioP2;P2;SDS_P1;SDS_P2;PMS_P1;PMS_P2;Temp;Humidity;BMP_temperature;BMP_pressure;BME280_temperature;BME280_humidity;BME280_pressure;Samples;Min_cycle;Max_cycle;Signal;HPM_P1;HPM_P2
2022/09/22 00:01:08;;;;;;;24.97;14.37;;;6.60;99.90;;;;;;4367234;28;659007;-71
2022/09/22 00:03:57;;;;;;;27.73;11.53;;;6.60;99.90;;;;;;4346515;28;657441;-71
2022/09/22 00:06:47;;;;;;;21.67;12.43;;;6.50;99.90;;;;;;4363750;28;658181;-71
2022/09/22 00:09:34;;;;;;;24.95;12.38;;;6.30;99.90;;;;;;4331481;28;659326;-71
2022/09/22 00:12:21;;;;;;;19.50;11.87;;;6.40;99.90;;;;;;4366555;28;657889;-72
2022/09/22 00:15:10;;;;;;;26.50;12.90;;;6.40;99.90;;;;;;4383660;28;658189;-71
2022/09/22 00:17:57;;;;;;;33.03;14.17;;;6.50;99.90;;;;;;4360727;28;658677;-71
2022/09/22 00:20:44;;;;;;;25.80;13.70;;;6.60;99.90;;;;;;4370196;28;658106;-70
2022/09/22 00:23:32;;;;;;;24.40;12.30;;;6.60;99.90;;;;;;4347761;28;657889;-71
2022/09/22 00:26:20;;;;;;;23.17;12.43;;;6.60;99.90;;;;;;4370518;28;657190;-71
2022/09/22 00:29:08;;;;;;;24.23;13.50;;;6.60;99.90;;;;;;4342052;28;658240;-71
2022/09/22 00:31:55;;;;;;;26.43;13.20;;;6.60;99.90;;;;;;4347527;28;657448;-71
2022/09/22 00:34:42;;;;;;;24.80;12.73;;;6.50;99.90;;;;;;4366683;28;658671;-71
2022/09/22 00:37:30;;;;;;;22.53;13.30;;;6.40;99.90;;;;;;4361855;28;657697;-71
2022/09/22 00:40:18;;;;;;;24.38;12.80;;;6.40;99.90;;;;;;4371012;28;657679;-71
2022/09/22 00:43:17;;;;;;;23.60;12.80;;;6.30;99.90;;;;;;4338747;28;657661;-71
2022/09/22 00:46:17;;;;;;;30.13;12.90;;;6.30;99.90;;;;;;4338378;28;658223;-71
2022/09/22 00:49:04;;;;;;;23.73;11.93;;;6.30;99.90;;;;;;4334443;28;657776;-71
2022/09/22 00:51:51;;;;;;;20.13;11.70;;;6.30;99.90;;;;;;4337937;28;658358;-71
2022/09/22 00:54:38;;;;;;;25.17;12.37;;;6.30;99.90;;;;;;4361891;28;657398;-71
2022/09/22 00:57:28;;;;;;;23.40;12.60;;;6.50;99.90;;;;;;4346997;28;657743;-71
2022/09/22 01:00:16;;;;;;;30.10;13.23;;;6.40;99.90;;;;;;4339524;28;657619;-71
2022/09/22 01:03:04;;;;;;;33.27;13.60;;;6.50;99.90;;;;;;4370766;28;657258;-71
2022/09/22 01:05:52;;;;;;;24.13;13.10;;;6.60;99.90;;;;;;4346355;28;658178;-71
2022/09/22 01:08:39;;;;;;;31.90;14.47;;;6.70;99.90;;;;;;4363222;28;658190;-71
2022/09/22 01:11:28;;;;;;;38.83;15.03;;;6.70;99.90;;;;;;4348026;28;657734;-71
2022/09/22 01:14:21;;;;;;;30.10;14.30;;;6.80;99.90;;;;;;4351462;28;657841;-71
2022/09/22 01:17:10;;;;;;;28.27;14.37;;;7.00;99.90;;;;;;4344994;28;658342;-71
2022/09/22 01:20:11;;;;;;;34.53;15.80;;;7.00;99.90;;;;;;4343139;28;658442;-72
2022/09/22 01:23:25;;;;;;;37.63;15.90;;;7.00;99.90;;;;;;4360367;28;657912;-71
2022/09/22 01:26:31;;;;;;;30.60;15.60;;;7.00;99.90;;;;;;4345530;28;657787;-72
2022/09/22 01:29:38;;;;;;;29.43;14.80;;;7.00;99.90;;;;;;4354484;28;657915;-71
2022/09/22 01:32:28;;;;;;;32.43;14.17;;;7.00;99.90;;;;;;4347159;28;657899;-71
2022/09/22 01:35:18;;;;;;;34.30;15.17;;;7.00;99.90;;;;;;4366534;28;658143;-70
2022/09/22 01:38:08;;;;;;;27.37;14.07;;;7.00;99.90;;;;;;4371086;28;658166;-71
2022/09/22 01:40:58;;;;;;;23.97;13.30;;;6.90;99.90;;;;;;4367435;28;657448;-72
2022/09/22 01:43:48;;;;;;;26.93;14.00;;;6.90;99.90;;;;;;4383259;28;657597;-72
2022/09/22 01:46:36;;;;;;;28.70;14.37;;;7.00;99.90;;;;;;4379513;28;657721;-71
2022/09/22 01:49:25;;;;;;;24.40;14.03;;;7.00;99.90;;;;;;4383987;28;658349;-71
2022/09/22 01:52:15;;;;;;;28.53;13.47;;;7.00;99.90;;;;;;4365549;28;658140;-71
2022/09/22 01:55:04;;;;;;;24.90;14.70;;;7.00;99.90;;;;;;4362719;28;659058;-71
2022/09/22 01:57:52;;;;;;;27.60;14.43;;;7.10;99.90;;;;;;4365284;28;658342;-71
2022/09/22 02:00:40;;;;;;;26.40;15.07;;;7.10;99.90;;;;;;4383669;28;657945;-71
2022/09/22 02:03:30;;;;;;;27.40;14.47;;;7.10;99.90;;;;;;4363422;28;658436;-71
2022/09/22 02:06:21;;;;;;;36.43;15.53;;;7.20;99.90;;;;;;4356490;28;658516;-71
2022/09/22 02:09:10;;;;;;;24.87;14.43;;;7.20;99.90;;;;;;4359076;28;658711;-71
2022/09/22 02:11:57;;;;;;;28.00;15.23;;;7.30;99.90;;;;;;4343551;28;659243;-72
2022/09/22 02:14:44;;;;;;;30.40;15.03;;;7.30;99.90;;;;;;4397417;28;657741;-71
2022/09/22 02:17:31;;;;;;;26.20;14.43;;;7.30;99.90;;;;;;4359562;28;658035;-71
2022/09/22 02:20:19;;;;;;;28.30;15.03;;;7.40;99.90;;;;;;4388027;28;658319;-71
2022/09/22 02:23:08;;;;;;;36.93;17.27;;;7.40;99.90;;;;;;4373124;28;657814;-71
2022/09/22 02:25:55;;;;;;;86.37;18.23;;;7.40;99.90;;;;;;4371290;28;657356;-71
2022/09/22 02:28:42;;;;;;;48.67;16.83;;;7.30;99.90;;;;;;4368408;28;657899;-71
2022/09/22 02:31:30;;;;;;;37.30;15.37;;;7.30;99.90;;;;;;4384546;28;657660;-72
2022/09/22 02:34:17;;;;;;;122.10;17.70;;;7.30;99.90;;;;;;4358692;28;658166;-73
2022/09/22 02:37:07;;;;;;;58.53;16.90;;;7.20;99.90;;;;;;4390859;28;658847;-73
2022/09/22 02:40:04;;;;;;;54.13;16.10;;;7.20;99.90;;;;;;4380989;28;657454;-73
2022/09/22 02:42:53;;;;;;;63.22;16.17;;;7.20;99.90;;;;;;4369765;28;657906;-74
2022/09/22 02:45:43;;;;;;;40.70;15.20;;;7.10;99.90;;;;;;4371707;28;658482;-73
2022/09/22 02:48:32;;;;;;;57.60;16.90;;;7.10;99.90;;;;;;4370300;28;658356;-73
2022/09/22 02:51:19;;;;;;;81.13;16.90;;;7.10;99.90;;;;;;4384917;28;657775;-73
2022/09/22 02:54:06;;;;;;;71.73;16.57;;;7.10;99.90;;;;;;4367333;28;657935;-73
2022/09/22 02:56:55;;;;;;;74.20;15.13;;;7.10;99.90;;;;;;4391166;28;658578;-73
2022/09/22 02:59:42;;;;;;;89.43;15.87;;;7.10;99.90;;;;;;4367276;28;658307;-72
2022/09/22 03:02:29;;;;;;;80.40;16.63;;;7.10;99.90;;;;;;4386661;28;657356;-71
2022/09/22 03:05:16;;;;;;;66.57;13.93;;;7.10;99.90;;;;;;4368317;28;657725;-71
2022/09/22 03:08:04;;;;;;;96.07;17.43;;;7.20;99.90;;;;;;4390134;28;658010;-71
2022/09/22 03:10:51;;;;;;;84.33;16.03;;;7.00;99.90;;;;;;4371174;28;657951;-71
2022/09/22 03:13:40;;;;;;;107.67;16.33;;;6.90;99.90;;;;;;4393582;28;658034;-71
2022/09/22 03:16:27;;;;;;;118.13;15.93;;;6.90;99.90;;;;;;4361593;28;659930;-71
2022/09/22 03:19:14;;;;;;;114.67;15.10;;;6.80;99.90;;;;;;4391046;28;658565;-71
2022/09/22 03:22:01;;;;;;;116.53;16.37;;;6.90;99.90;;;;;;4366150;28;658398;-71
2022/09/22 03:24:48;;;;;;;48.50;12.90;;;6.90;99.90;;;;;;4388024;28;659688;-72
2022/09/22 03:27:35;;;;;;;38.10;12.80;;;6.90;99.90;;;;;;4369916;28;657894;-72
2022/09/22 03:30:24;;;;;;;59.25;13.13;;;6.80;99.90;;;;;;4392028;28;657804;-72
2022/09/22 03:33:11;;;;;;;54.37;13.03;;;6.90;99.90;;;;;;4371902;28;657466;-71
2022/09/22 03:35:58;;;;;;;67.47;12.90;;;6.90;99.90;;;;;;4383072;28;658200;-71
2022/09/22 03:38:45;;;;;;;76.60;13.13;;;6.90;99.90;;;;;;4343210;28;657921;-72
2022/09/22 03:41:32;;;;;;;36.30;11.20;;;6.90;99.90;;;;;;4381736;28;657903;-71
2022/09/22 03:44:19;;;;;;;50.87;11.10;;;6.90;99.90;;;;;;4374745;28;658194;-71
2022/09/22 03:47:08;;;;;;;73.53;13.40;;;6.80;99.90;;;;;;4359495;28;657804;-71
2022/09/22 03:49:55;;;;;;;59.23;11.67;;;6.70;99.90;;;;;;4341193;28;658513;-71
2022/09/22 03:52:43;;;;;;;76.80;11.53;;;6.70;99.90;;;;;;4368456;28;658306;-71
2022/09/22 03:55:30;;;;;;;43.60;11.13;;;6.60;99.90;;;;;;4351251;28;657508;-71
2022/09/22 03:58:18;;;;;;;44.00;10.50;;;6.60;99.90;;;;;;4377865;28;659386;-71
2022/09/22 04:01:06;;;;;;;41.37;9.97;;;6.60;99.90;;;;;;4363048;28;658116;-73
2022/09/22 04:03:54;;;;;;;71.07;9.70;;;6.60;99.90;;;;;;4379027;28;657638;-73
2022/09/22 04:06:41;;;;;;;34.27;10.40;;;6.60;99.90;;;;;;4355209;28;657097;-73
2022/09/22 04:09:28;;;;;;;106.27;11.90;;;6.60;99.90;;;;;;4387955;28;657215;-73
2022/09/22 04:12:15;;;;;;;52.23;10.63;;;6.60;99.90;;;;;;4353002;28;658760;-72
2022/09/22 04:15:03;;;;;;;74.97;12.10;;;6.60;99.90;;;;;;4370279;28;658172;-71
2022/09/22 04:17:50;;;;;;;71.90;11.57;;;6.60;99.90;;;;;;4375947;28;658128;-71
2022/09/22 04:20:39;;;;;;;59.00;10.18;;;6.50;99.90;;;;;;4396170;28;657558;-71
2022/09/22 04:23:26;;;;;;;44.23;9.83;;;6.60;99.90;;;;;;4364000;28;657987;-71
2022/09/22 04:26:13;;;;;;;64.27;10.30;;;6.60;99.90;;;;;;4390930;28;657412;-71
2022/09/22 04:29:00;;;;;;;95.23;9.80;;;6.60;99.90;;;;;;4358617;28;657640;-71
2022/09/22 04:31:48;;;;;;;84.37;9.90;;;6.60;99.90;;;;;;4389296;28;658017;-73
2022/09/22 04:34:35;;;;;;;66.37;11.53;;;6.50;99.90;;;;;;4377532;28;656815;-73
2022/09/22 04:37:23;;;;;;;57.03;10.10;;;6.60;99.90;;;;;;4366553;28;657791;-73
2022/09/22 04:40:11;;;;;;;54.07;9.73;;;6.60;99.90;;;;;;4344624;28;657992;-73
2022/09/22 04:42:58;;;;;;;72.07;10.10;;;6.70;99.90;;;;;;4368342;28;656938;-73
2022/09/22 04:45:47;;;;;;;79.23;10.97;;;6.70;99.90;;;;;;4374308;28;657741;-73
2022/09/22 04:48:34;;;;;;;65.53;12.53;;;6.70;99.90;;;;;;4398291;28;657667;-73
2022/09/22 04:51:21;;;;;;;116.90;11.53;;;6.80;99.90;;;;;;4368264;28;657870;-73
2022/09/22 04:54:10;;;;;;;35.27;11.13;;;6.80;99.90;;;;;;4391053;28;659361;-73
2022/09/22 04:56:57;;;;;;;69.03;10.23;;;6.90;99.90;;;;;;4365445;28;659302;-73
2022/09/22 04:59:44;;;;;;;32.27;10.70;;;7.00;99.90;;;;;;4393458;28;657008;-73
2022/09/22 05:02:31;;;;;;;35.93;10.03;;;7.00;99.90;;;;;;4372081;28;657534;-73
2022/09/22 05:05:18;;;;;;;53.03;10.93;;;7.20;99.90;;;;;;4396289;28;658123;-73
2022/09/22 05:08:06;;;;;;;32.63;9.63;;;7.10;99.90;;;;;;4368884;28;657600;-73
2022/09/22 05:10:55;;;;;;;36.23;9.87;;;7.20;99.90;;;;;;4394601;28;657573;-70
2022/09/22 05:13:42;;;;;;;42.87;11.03;;;6.80;99.90;;;;;;4372132;28;657063;-73
2022/09/22 05:16:31;;;;;;;24.90;10.33;;;6.90;99.90;;;;;;4387104;28;657825;-72
2022/09/22 05:19:18;;;;;;;37.10;10.63;;;7.00;99.90;;;;;;4365111;28;658387;-72
2022/09/22 05:22:06;;;;;;;31.03;10.43;;;7.20;99.90;;;;;;4367911;28;657203;-73
2022/09/22 05:24:53;;;;;;;28.37;9.80;;;7.30;99.90;;;;;;4387799;28;658361;-72
2022/09/22 05:27:44;;;;;;;30.57;9.07;;;7.30;99.90;;;;;;4376620;28;656241;-73
2022/09/22 05:30:31;;;;;;;27.43;8.50;;;7.30;99.90;;;;;;4376094;28;656722;-73
2022/09/22 05:33:19;;;;;;;36.77;9.20;;;7.20;99.90;;;;;;4393080;28;656499;-73
2022/09/22 05:36:06;;;;;;;36.40;11.67;;;7.20;99.90;;;;;;4359421;28;656586;-73
2022/09/22 05:38:53;;;;;;;29.00;11.57;;;7.10;99.90;;;;;;4372579;28;658182;-72
2022/09/22 05:41:40;;;;;;;24.27;10.23;;;7.30;99.90;;;;;;4350681;28;658431;-73
2022/09/22 05:44:29;;;;;;;32.73;10.97;;;7.40;99.90;;;;;;4384795;28;658322;-73
2022/09/22 05:47:16;;;;;;;30.37;10.83;;;7.50;99.90;;;;;;4359775;28;658142;-73
2022/09/22 05:50:03;;;;;;;34.20;11.70;;;7.30;99.90;;;;;;4387475;28;657943;-72
2022/09/22 05:52:50;;;;;;;25.93;11.47;;;7.10;99.90;;;;;;4358397;28;657790;-72
2022/09/22 05:55:38;;;;;;;30.00;11.63;;;7.20;99.90;;;;;;4364584;28;657501;-72
2022/09/22 05:58:25;;;;;;;26.43;11.70;;;7.50;99.90;;;;;;4352803;28;657650;-72
2022/09/22 06:01:14;;;;;;;26.60;11.00;;;7.60;99.90;;;;;;4378671;28;657356;-70
2022/09/22 06:04:01;;;;;;;28.53;11.43;;;7.70;99.90;;;;;;4347907;28;657453;-70
2022/09/22 06:06:48;;;;;;;28.27;11.70;;;7.80;99.90;;;;;;4378373;28;659010;-71
2022/09/22 06:09:36;;;;;;;26.73;11.33;;;7.90;99.90;;;;;;4361382;28;657708;-70
2022/09/22 06:12:23;;;;;;;28.73;12.67;;;8.00;99.90;;;;;;4386370;28;658273;-71
2022/09/22 06:15:10;;;;;;;24.93;11.07;;;8.10;99.90;;;;;;4368655;28;658103;-70
2022/09/22 06:17:59;;;;;;;29.37;12.70;;;8.00;99.90;;;;;;4388541;28;658093;-70
2022/09/22 06:20:46;;;;;;;24.23;10.20;;;8.10;99.90;;;;;;4368062;28;657670;-70
2022/09/22 06:23:33;;;;;;;22.20;10.03;;;8.20;99.90;;;;;;4378079;28;658372;-69
2022/09/22 06:26:20;;;;;;;30.13;12.23;;;7.90;99.90;;;;;;4362752;28;657518;-70
2022/09/22 06:29:09;;;;;;;23.27;11.50;;;8.00;99.90;;;;;;4387820;28;658728;-70
2022/09/22 06:31:56;;;;;;;26.20;10.97;;;8.10;99.90;;;;;;4366958;28;657882;-71
2022/09/22 06:34:45;;;;;;;28.10;12.23;;;8.20;99.90;;;;;;4382274;28;658002;-70
2022/09/22 06:37:34;;;;;;;24.97;11.50;;;8.30;99.90;;;;;;4355717;28;658294;-70
2022/09/22 06:40:21;;;;;;;27.93;11.97;;;8.50;99.90;;;;;;4360791;28;657703;-70
2022/09/22 06:43:10;;;;;;;26.87;11.60;;;8.60;99.90;;;;;;4377998;28;658731;-70
2022/09/22 06:46:01;;;;;;;24.67;10.83;;;8.70;99.90;;;;;;4358590;28;658556;-70
2022/09/22 06:48:50;;;;;;;21.23;11.13;;;9.00;99.90;;;;;;4363456;28;658262;-70
2022/09/22 06:51:38;;;;;;;21.90;10.40;;;8.60;99.90;;;;;;4359209;28;658867;-70
2022/09/22 06:54:25;;;;;;;21.50;10.27;;;8.40;99.90;;;;;;4361804;28;657866;-70
2022/09/22 06:57:12;;;;;;;21.57;10.13;;;8.60;99.90;;;;;;4383364;28;658072;-70
2022/09/22 07:00:01;;;;;;;22.03;10.30;;;8.60;99.90;;;;;;4372442;28;657988;-69
2022/09/22 07:02:48;;;;;;;21.50;10.33;;;8.40;99.90;;;;;;4376433;28;657344;-69
2022/09/22 07:05:35;;;;;;;19.83;9.50;;;8.30;99.90;;;;;;4364915;28;657920;-70
2022/09/22 07:08:24;;;;;;;18.97;9.97;;;8.40;99.90;;;;;;4381625;28;656441;-70
2022/09/22 07:11:12;;;;;;;20.07;9.87;;;8.60;99.90;;;;;;4357726;28;656492;-69
2022/09/22 07:14:00;;;;;;;19.77;8.90;;;8.80;99.90;;;;;;4385724;28;656869;-70
2022/09/22 07:16:47;;;;;;;19.80;9.77;;;9.20;99.90;;;;;;4357084;28;657531;-70
2022/09/22 07:19:35;;;;;;;14.80;6.90;;;9.40;99.90;;;;;;4386098;28;657259;-70
2022/09/22 07:22:22;;;;;;;16.23;8.53;;;9.50;99.90;;;;;;4359010;28;657428;-70
2022/09/22 07:25:11;;;;;;;15.77;7.97;;;9.70;99.90;;;;;;4386627;28;658255;-70
2022/09/22 07:28:03;;;;;;;13.40;7.23;;;9.80;99.90;;;;;;4356375;28;657149;-69
2022/09/22 07:30:50;;;;;;;13.43;7.20;;;9.90;99.90;;;;;;4344978;28;656713;-69
2022/09/22 07:33:39;;;;;;;10.60;5.83;;;9.90;99.90;;;;;;4384277;28;657784;-70
2022/09/22 07:36:26;;;;;;;13.23;6.30;;;10.00;99.90;;;;;;4358403;28;656555;-70
2022/09/22 07:39:14;;;;;;;12.60;6.47;;;10.40;99.90;;;;;;4380113;28;657403;-69
2022/09/22 07:42:02;;;;;;;10.83;5.73;;;10.40;99.90;;;;;;4363959;28;657676;-70
2022/09/22 07:50:59;;;;;;;12.70;5.50;;;10.20;99.90;;;;;;4352038;28;657863;-70
2022/09/22 07:53:46;;;;;;;8.63;5.30;;;10.10;99.90;;;;;;4366493;28;657997;-70
2022/09/22 07:56:34;;;;;;;8.70;4.70;;;10.50;99.90;;;;;;4387178;28;656764;-70
2022/09/22 07:59:22;;;;;;;9.33;4.67;;;10.20;99.90;;;;;;4358071;28;656849;-69
2022/09/22 08:02:11;;;;;;;11.93;4.73;;;10.30;99.90;;;;;;4382121;28;656247;-69
2022/09/22 08:05:01;;;;;;;9.63;4.67;;;10.30;99.90;;;;;;4383809;28;658142;-69
2022/09/22 08:07:48;;;;;;;9.07;5.30;;;10.40;99.90;;;;;;4355715;28;657552;-69
2022/09/22 08:10:35;;;;;;;10.90;5.40;;;10.40;99.90;;;;;;4364417;28;656454;-69
2022/09/22 08:13:23;;;;;;;8.13;4.87;;;10.20;99.90;;;;;;4385510;28;658465;-69
2022/09/22 08:16:11;;;;;;;12.37;5.10;;;10.30;99.90;;;;;;4374408;28;656608;-69
2022/09/22 08:19:01;;;;;;;10.77;5.27;;;10.20;99.90;;;;;;4387644;28;657478;-69
2022/09/22 08:21:50;;;;;;;9.67;4.60;;;10.40;99.90;;;;;;4363285;28;657368;-69
2022/09/22 08:24:37;;;;;;;9.07;4.00;;;10.60;99.90;;;;;;4364998;28;656781;-69
2022/09/22 08:27:25;;;;;;;8.23;4.70;;;10.60;99.90;;;;;;4389932;28;656628;-69
2022/09/22 08:30:12;;;;;;;8.77;4.73;;;10.40;99.90;;;;;;4372867;28;657758;-69
2022/09/22 08:33:01;;;;;;;9.00;4.97;;;10.00;99.90;;;;;;4399288;28;656868;-69
2022/09/22 08:35:52;;;;;;;8.13;4.57;;;10.40;99.90;;;;;;4366319;28;657120;-69
2022/09/22 08:38:40;;;;;;;6.63;3.83;;;10.70;99.90;;;;;;4364984;28;656546;-70
2022/09/22 08:41:34;;;;;;;9.63;4.97;;;10.50;99.90;;;;;;4348031;28;656907;-70
2022/09/22 08:44:22;;;;;;;12.53;5.30;;;10.50;99.90;;;;;;4357447;28;656761;-70
2022/09/22 08:47:15;;;;;;;10.60;5.27;;;10.60;99.90;;;;;;4384475;28;657781;-69
2022/09/22 08:53:28;;;;;;;8.93;5.03;;;10.40;99.90;;;;;;4367929;28;657547;-69
2022/09/22 08:56:31;;;;;;;15.37;7.57;;;10.40;99.90;;;;;;4367057;28;656593;-70
2022/09/22 08:59:21;;;;;;;15.83;6.77;;;10.30;99.90;;;;;;4359288;28;658005;-70
2022/09/22 09:02:32;;;;;;;18.67;7.20;;;10.40;99.90;;;;;;4369032;28;658001;-69
2022/09/22 09:05:45;;;;;;;12.67;6.70;;;10.30;99.90;;;;;;4380912;28;657383;-69
2022/09/22 09:08:46;;;;;;;10.03;4.67;;;10.40;99.90;;;;;;4338657;28;658114;-70
2022/09/22 09:11:45;;;;;;;6.33;3.87;;;10.60;99.90;;;;;;4343312;28;658424;-69
2022/09/22 09:14:50;;;;;;;7.83;4.20;;;10.90;99.90;;;;;;4339849;28;656614;-69
2022/09/22 09:17:39;;;;;;;10.33;4.20;;;11.10;99.90;;;;;;4353162;28;656526;-69
2022/09/22 09:20:31;;;;;;;6.60;3.70;;;11.20;99.90;;;;;;4354758;28;658575;-70
2022/09/22 09:23:21;;;;;;;10.33;4.93;;;10.90;99.90;;;;;;4347939;28;658065;-69
2022/09/22 09:26:08;;;;;;;11.67;5.10;;;10.50;99.90;;;;;;4346845;28;657627;-69
2022/09/22 09:28:57;;;;;;;12.97;5.80;;;10.60;99.90;;;;;;4343559;28;657503;-69
2022/09/22 09:31:46;;;;;;;10.07;5.10;;;10.60;99.90;;;;;;4379521;28;657722;-69
2022/09/22 09:34:34;;;;;;;6.60;3.80;;;10.70;99.90;;;;;;4341474;28;659025;-69
2022/09/22 09:37:23;;;;;;;12.43;3.63;;;10.80;99.90;;;;;;4350738;28;656717;-69
2022/09/22 09:40:14;;;;;;;7.03;3.60;;;11.20;99.90;;;;;;4357189;28;658468;-69
2022/09/22 09:43:03;;;;;;;6.30;3.50;;;11.20;99.90;;;;;;4360163;28;656769;-69
2022/09/22 09:45:55;;;;;;;5.77;3.03;;;11.10;99.90;;;;;;4351398;28;656966;-69
2022/09/22 09:48:48;;;;;;;5.30;2.63;;;11.50;99.90;;;;;;4352626;28;656844;-69
2022/09/22 09:51:36;;;;;;;7.53;4.07;;;12.20;99.90;;;;;;4341839;28;656590;-70
2022/09/22 09:54:26;;;;;;;13.33;4.87;;;12.10;99.90;;;;;;4370848;28;657513;-68
2022/09/22 09:57:14;;;;;;;5.90;3.17;;;11.90;99.90;;;;;;4352077;28;657985;-68
2022/09/22 10:00:32;;;;;;;6.17;2.73;;;12.30;99.90;;;;;;4363332;28;656278;-68
2022/09/22 10:03:24;;;;;;;5.87;2.40;;;12.00;99.90;;;;;;4353520;28;657285;-69
2022/09/22 10:06:11;;;;;;;3.83;2.40;;;12.20;99.90;;;;;;4322104;28;657961;-70
2022/09/22 10:08:58;;;;;;;4.03;2.30;;;11.20;99.90;;;;;;4371223;28;656728;-69
2022/09/22 10:11:47;;;;;;;6.40;3.40;;;11.20;99.90;;;;;;4352873;28;657096;-69
2022/09/22 10:14:34;;;;;;;6.90;3.40;;;10.90;99.90;;;;;;4371298;28;657570;-69
2022/09/22 10:17:22;;;;;;;6.37;3.40;;;11.20;99.90;;;;;;4354158;28;656883;-69
2022/09/22 10:20:19;;;;;;;6.40;3.90;;;11.30;99.90;;;;;;4376158;28;656509;-69
2022/09/22 10:23:19;;;;;;;6.83;3.67;;;11.50;99.90;;;;;;4326385;28;657028;-70
2022/09/22 10:26:17;;;;;;;11.20;5.10;;;11.70;99.90;;;;;;4319792;28;657541;-69
2022/09/22 10:29:16;;;;;;;7.20;3.27;;;11.60;99.90;;;;;;4341105;28;659001;-69
2022/09/22 10:32:14;;;;;;;9.43;4.20;;;11.30;99.90;;;;;;4339591;28;658933;-69
2022/09/22 10:35:02;;;;;;;6.47;3.37;;;11.90;99.90;;;;;;4344858;28;656319;-69
2022/09/22 10:37:49;;;;;;;10.87;3.60;;;12.60;99.90;;;;;;4362575;28;656780;-69
2022/09/22 10:40:38;;;;;;;7.60;3.67;;;12.90;99.90;;;;;;4345378;28;658335;-69
2022/09/22 10:43:39;;;;;;;9.97;4.27;;;13.00;99.90;;;;;;4357436;28;657762;-69
2022/09/22 10:47:00;;;;;;;8.87;3.90;;;12.90;99.90;;;;;;4346482;28;656498;-70
2022/09/22 10:49:54;;;;;;;7.60;3.60;;;12.80;99.90;;;;;;4315037;28;657019;-70
2022/09/22 10:52:43;;;;;;;6.57;3.60;;;11.80;99.90;;;;;;4348317;28;656615;-69
2022/09/22 10:55:30;;;;;;;7.83;3.70;;;11.70;99.90;;;;;;4348318;28;657010;-69
2022/09/22 10:58:31;;;;;;;12.90;5.20;;;11.80;99.90;;;;;;4362593;28;657593;-69
2022/09/22 11:01:30;;;;;;;5.27;2.80;;;11.90;99.90;;;;;;4345959;28;657612;-69
2022/09/22 11:04:30;;;;;;;4.73;2.53;;;11.90;99.90;;;;;;4354834;28;657045;-69
2022/09/22 11:13:57;;;;;;;5.27;2.90;;;13.20;99.90;;;;;;4343101;28;656945;-69
2022/09/22 11:16:57;;;;;;;5.57;1.90;;;14.00;99.90;;;;;;4344454;28;656449;-69
2022/09/22 11:20:07;;;;;;;3.20;2.10;;;13.90;99.90;;;;;;4338042;28;657144;-69
2022/09/22 11:23:04;;;;;;;2.87;1.70;;;13.40;99.90;;;;;;4352535;28;656869;-69
2022/09/22 11:25:58;;;;;;;3.93;2.07;;;13.30;99.90;;;;;;4320619;28;656927;-69
2022/09/22 11:28:54;;;;;;;4.23;2.27;;;13.00;99.90;;;;;;4332264;28;656923;-69
2022/09/22 11:31:42;;;;;;;4.57;2.37;;;13.60;99.90;;;;;;4355018;28;656502;-70
2022/09/22 11:34:51;;;;;;;2.77;1.80;;;13.70;99.90;;;;;;4377246;28;655810;-69
2022/09/22 11:37:45;;;;;;;3.07;1.73;;;13.80;99.90;;;;;;4329292;28;656986;-69
2022/09/22 11:40:40;;;;;;;3.03;1.83;;;14.40;99.90;;;;;;4329162;28;657321;-69
2022/09/22 11:43:36;;;;;;;6.10;2.00;;;14.70;99.90;;;;;;4349390;28;656992;-69
2022/09/22 11:46:28;;;;;;;3.93;2.10;;;15.10;99.90;;;;;;4356402;28;658033;-69
2022/09/22 11:49:18;;;;;;;5.57;2.67;;;15.10;99.90;;;;;;4330711;28;656461;-69
2022/09/22 11:52:13;;;;;;;6.57;2.30;;;14.70;99.90;;;;;;4353140;28;656633;-69
2022/09/22 11:55:11;;;;;;;5.07;2.40;;;15.30;99.90;;;;;;4327466;28;656840;-69
2022/09/22 11:58:00;;;;;;;3.25;1.90;;;15.80;99.90;;;;;;4344558;28;657486;-69
2022/09/22 12:00:50;;;;;;;3.30;2.27;;;15.80;99.90;;;;;;4365436;28;656625;-69
2022/09/22 12:03:39;;;;;;;6.30;2.63;;;15.30;99.90;;;;;;4364116;28;657590;-69
2022/09/22 12:06:29;;;;;;;7.23;3.70;;;14.00;99.90;;;;;;4373866;28;656279;-69
2022/09/22 12:09:26;;;;;;;7.60;4.20;;;13.70;99.90;;;;;;4356285;28;656316;-69
2022/09/22 12:12:16;;;;;;;5.57;2.90;;;13.30;99.90;;;;;;4366234;28;656838;-69
2022/09/22 12:15:07;;;;;;;10.50;3.67;;;13.60;99.90;;;;;;4368216;28;656656;-69
2022/09/22 12:17:58;;;;;;;11.30;5.43;;;12.70;99.90;;;;;;4363493;28;657383;-70
2022/09/22 12:20:49;;;;;;;6.68;3.55;;;11.50;99.90;;;;;;4367932;28;657795;-69
2022/09/22 12:23:38;;;;;;;7.23;3.30;;;11.40;99.90;;;;;;4371844;28;657068;-69
2022/09/22 12:26:26;;;;;;;8.20;4.03;;;11.50;99.90;;;;;;4367439;28;656433;-69
2022/09/22 12:29:23;;;;;;;7.50;2.13;;;11.60;99.90;;;;;;4386794;28;657186;-70
2022/09/22 12:32:20;;;;;;;3.53;2.03;;;12.00;99.90;;;;;;4367070;28;656274;-69
2022/09/22 12:35:14;;;;;;;3.63;2.20;;;11.90;99.90;;;;;;4343326;28;656647;-69
2022/09/22 12:38:01;;;;;;;2.53;1.17;;;11.90;99.90;;;;;;4342186;28;656860;-68
2022/09/22 12:40:48;;;;;;;4.10;1.77;;;12.50;99.90;;;;;;4393865;28;657278;-68
2022/09/22 12:43:36;;;;;;;5.50;2.10;;;12.90;99.90;;;;;;4368790;28;656737;-68
2022/09/22 12:46:26;;;;;;;5.50;2.27;;;13.10;99.90;;;;;;4388721;28;657050;-69
2022/09/22 12:49:14;;;;;;;3.10;2.17;;;12.70;99.90;;;;;;4370597;28;657231;-69
2022/09/22 12:52:02;;;;;;;3.93;2.30;;;12.50;99.90;;;;;;4365231;28;657653;-68
2022/09/22 12:54:51;;;;;;;7.53;2.33;;;12.30;99.90;;;;;;4386546;28;656225;-68
2022/09/22 12:57:45;;;;;;;4.60;2.20;;;11.80;99.90;;;;;;4369976;28;656901;-69
2022/09/22 13:00:35;;;;;;;3.93;1.50;;;11.20;99.90;;;;;;4359949;28;656844;-68
2022/09/22 13:03:48;;;;;;;4.10;1.77;;;10.90;99.90;;;;;;4365210;28;656903;-69
2022/09/22 13:06:55;;;;;;;4.93;1.80;;;11.10;99.90;;;;;;4345175;28;656759;-69
2022/09/22 13:09:42;;;;;;;2.97;1.90;;;11.00;99.90;;;;;;4353470;28;657057;-69
2022/09/22 13:12:29;;;;;;;3.90;1.90;;;11.20;99.90;;;;;;4387969;28;656703;-69
2022/09/22 13:15:18;;;;;;;4.33;1.90;;;11.40;99.90;;;;;;4366184;28;656364;-69
2022/09/22 13:18:18;;;;;;;5.43;3.20;;;11.40;99.90;;;;;;4368304;28;656644;-68
2022/09/22 13:21:22;;;;;;;6.20;2.97;;;11.70;99.90;;;;;;4370134;28;657391;-68
2022/09/22 13:24:18;;;;;;;4.13;2.60;;;11.90;99.90;;;;;;4367770;28;657122;-68
2022/09/22 13:27:06;;;;;;;4.57;3.00;;;12.20;99.90;;;;;;4352793;28;656681;-68
2022/09/22 13:30:02;;;;;;;5.97;3.50;;;12.30;99.90;;;;;;4388754;28;656459;-68
2022/09/22 13:32:49;;;;;;;7.07;3.30;;;12.50;99.90;;;;;;4357998;28;656676;-68
2022/09/22 13:35:38;;;;;;;3.90;2.70;;;12.40;99.90;;;;;;4375395;28;656403;-68
2022/09/22 13:38:27;;;;;;;4.90;2.70;;;12.60;99.90;;;;;;4367541;28;656751;-68
2022/09/22 13:41:16;;;;;;;4.70;2.77;;;12.60;99.90;;;;;;4391860;28;656552;-68
2022/09/22 13:44:06;;;;;;;6.13;2.77;;;12.60;99.90;;;;;;4367340;28;657394;-68
2022/09/22 13:46:54;;;;;;;9.97;3.47;;;12.10;99.90;;;;;;4367522;28;657692;-68
2022/09/22 13:49:43;;;;;;;6.80;3.20;;;12.20;99.90;;;;;;4371537;28;656541;-69
2022/09/22 13:52:31;;;;;;;8.53;3.57;;;12.50;99.90;;;;;;4369758;28;656454;-69
2022/09/22 13:55:22;;;;;;;6.90;3.87;;;12.50;99.90;;;;;;4391363;28;657394;-69
2022/09/22 13:58:12;;;;;;;7.50;3.67;;;13.30;99.90;;;;;;4366962;28;656765;-69
2022/09/22 14:00:59;;;;;;;3.97;2.80;;;14.40;99.90;;;;;;4358985;28;656478;-69
2022/09/22 14:03:46;;;;;;;5.57;3.30;;;15.00;99.90;;;;;;4366588;28;656331;-68
2022/09/22 14:06:34;;;;;;;6.80;4.30;;;15.00;99.90;;;;;;4401128;28;656967;-69
2022/09/22 14:09:21;;;;;;;4.20;2.67;;;14.50;99.90;;;;;;4369983;28;656876;-69
2022/09/22 14:12:10;;;;;;;10.43;3.83;;;13.80;99.90;;;;;;4398460;28;655932;-69
2022/09/22 14:15:13;;;;;;;8.73;4.40;;;13.10;99.90;;;;;;4370695;28;658152;-68
2022/09/22 14:18:01;;;;;;;13.90;6.67;;;12.30;99.90;;;;;;4347218;28;656979;-69
2022/09/22 14:20:48;;;;;;;11.10;5.47;;;12.20;99.90;;;;;;4391359;28;658025;-69
2022/09/22 14:23:35;;;;;;;9.65;5.43;;;12.30;99.90;;;;;;4378207;28;657544;-69
2022/09/22 14:26:26;;;;;;;10.40;5.40;;;12.10;99.90;;;;;;4389394;28;656958;-69
2022/09/22 14:29:17;;;;;;;9.67;5.20;;;11.70;99.90;;;;;;4358417;28;658324;-69
2022/09/22 14:32:07;;;;;;;10.87;6.00;;;11.90;99.90;;;;;;4369338;28;657023;-69
2022/09/22 14:34:56;;;;;;;10.10;4.47;;;11.80;99.90;;;;;;4364931;28;658193;-69
2022/09/22 14:37:44;;;;;;;8.17;4.40;;;11.60;99.90;;;;;;4366469;28;657481;-69
2022/09/22 14:40:31;;;;;;;5.37;2.60;;;11.50;99.90;;;;;;4371870;28;656495;-69
2022/09/22 14:43:23;;;;;;;5.13;2.40;;;11.20;99.90;;;;;;4381686;28;657430;-69